Time;durP1;ratioP1;P1;durP2;ratioP2;P2;SDS_P1;SDS_P2;PMS_P1;PMS_P2;Temp;Humidity;BMP_temperature;BMP_pressure;BME280_temperature;BME280_humidity;BME280_pressure;Samples;Min_cycle;Max_cycle;Signal;HPM_P1;HPM_P2
2021/08/09 00:02:08;;;;;;;14.48;3.90;;;15.80;99.90;;;;;;5115537;28;20035;-83
2021/08/09 00:04:36;;;;;;;15.00;4.20;;;15.70;99.90;;;;;;5097470;28;20428;-83
2021/08/09 00:07:04;;;;;;;14.35;4.18;;;15.70;99.90;;;;;;5115251;28;20134;-82
2021/08/09 00:09:30;;;;;;;14.88;4.43;;;15.70;99.90;;;;;;5080714;28;20067;-83
2021/08/09 00:11:56;;;;;;;11.18;4.88;;;15.60;99.90;;;;;;5097321;28;20439;-83
2021/08/09 00:14:22;;;;;;;15.02;4.82;;;15.70;99.90;;;;;;5097300;28;20059;-83
2021/08/09 00:16:48;;;;;;;16.17;3.97;;;15.70;99.90;;;;;;5080111;28;20059;-82
2021/08/09 00:19:14;;;;;;;16.52;4.22;;;15.60;99.90;;;;;;5097125;28;20030;-82
2021/08/09 00:21:40;;;;;;;11.95;4.07;;;15.60;99.90;;;;;;5115262;28;20046;-83
2021/08/09 00:24:06;;;;;;;19.98;4.72;;;15.60;99.90;;;;;;5096817;28;20032;-83
2021/08/09 00:26:34;;;;;;;15.35;4.40;;;15.60;99.90;;;;;;5096986;28;20498;-83
2021/08/09 00:29:00;;;;;;;16.90;4.40;;;15.60;99.90;;;;;;5080246;28;20068;-83
2021/08/09 00:31:26;;;;;;;18.77;4.93;;;15.50;99.90;;;;;;5096936;28;20042;-83
2021/08/09 00:33:53;;;;;;;16.92;4.88;;;15.60;99.90;;;;;;5114562;28;20036;-82
2021/08/09 00:36:19;;;;;;;18.83;4.22;;;15.60;99.90;;;;;;5096780;28;20476;-83
2021/08/09 00:38:45;;;;;;;12.70;4.53;;;15.60;99.90;;;;;;5079934;28;20031;-83
2021/08/09 00:41:11;;;;;;;19.52;4.60;;;15.60;99.90;;;;;;5114564;28;20042;-83
2021/08/09 00:43:37;;;;;;;14.23;4.47;;;15.60;99.90;;;;;;5096701;28;20052;-82
2021/08/09 00:46:04;;;;;;;15.90;4.18;;;15.60;99.90;;;;;;5080182;28;20074;-82
2021/08/09 00:48:36;;;;;;;13.98;5.32;;;15.50;99.90;;;;;;5088136;28;20066;-82
2021/08/09 00:51:05;;;;;;;9.52;3.88;;;15.50;99.90;;;;;;5096326;28;20042;-82
2021/08/09 00:53:33;;;;;;;12.98;4.38;;;15.60;99.90;;;;;;5078751;28;20047;-82
2021/08/09 00:56:02;;;;;;;13.90;4.10;;;15.50;99.90;;;;;;5096384;28;20051;-82
2021/08/09 00:58:28;;;;;;;13.30;4.47;;;15.60;99.90;;;;;;5114661;28;20084;-82
2021/08/09 01:00:54;;;;;;;16.08;4.68;;;15.60;99.90;;;;;;5114598;28;20043;-82
2021/08/09 01:03:20;;;;;;;16.58;4.28;;;15.60;99.90;;;;;;5063432;28;20051;-82
2021/08/09 01:05:50;;;;;;;13.25;3.95;;;15.50;99.90;;;;;;5114621;28;20040;-82
2021/08/09 01:08:49;;;;;;;12.52;3.50;;;15.50;99.90;;;;;;5080875;28;20490;-83
2021/08/09 01:11:28;;;;;;;15.50;4.00;;;15.50;99.90;;;;;;5102249;28;20053;-82
2021/08/09 01:14:03;;;;;;;10.05;3.45;;;15.60;99.90;;;;;;5079630;28;20043;-83
2021/08/09 01:16:35;;;;;;;12.18;3.35;;;15.40;99.90;;;;;;5096942;28;20038;-82
2021/08/09 01:19:07;;;;;;;11.77;3.78;;;15.40;99.90;;;;;;5097420;28;20036;-82
2021/08/09 01:21:35;;;;;;;11.20;3.80;;;15.40;99.90;;;;;;5114550;28;20039;-83
2021/08/09 01:24:32;;;;;;;13.18;3.72;;;15.40;99.90;;;;;;5096746;28;20475;-82
2021/08/09 01:27:06;;;;;;;15.02;3.88;;;15.40;99.90;;;;;;5096087;28;20032;-82
2021/08/09 01:29:43;;;;;;;11.05;4.13;;;15.40;99.90;;;;;;5114126;28;20050;-83
2021/08/09 01:32:10;;;;;;;10.50;4.05;;;15.40;99.90;;;;;;5114689;28;20039;-82
2021/08/09 01:34:37;;;;;;;10.18;4.03;;;15.40;99.90;;;;;;5075986;28;20055;-82
2021/08/09 01:37:04;;;;;;;12.77;4.30;;;15.40;99.90;;;;;;5092775;28;20118;-82
2021/08/09 01:39:34;;;;;;;17.55;4.38;;;15.40;99.90;;;;;;5078290;28;20063;-82
2021/08/09 01:42:04;;;;;;;15.40;4.72;;;15.30;99.90;;;;;;5096957;28;20116;-82
2021/08/09 01:44:31;;;;;;;8.60;4.63;;;15.30;99.90;;;;;;5114222;28;20051;-83
2021/08/09 01:46:57;;;;;;;19.60;4.55;;;15.30;99.90;;;;;;5114325;28;20427;-82
2021/08/09 01:49:23;;;;;;;13.13;4.30;;;15.30;99.90;;;;;;5114446;28;20036;-82
2021/08/09 01:51:50;;;;;;;12.98;4.18;;;15.30;99.90;;;;;;5114243;28;20031;-82
2021/08/09 01:54:20;;;;;;;12.40;4.97;;;15.30;99.90;;;;;;5113726;28;20054;-79
2021/08/09 01:56:46;;;;;;;14.70;5.45;;;15.30;99.90;;;;;;5078347;28;20099;-82
2021/08/09 01:59:12;;;;;;;18.83;5.55;;;15.30;99.90;;;;;;5096189;28;20456;-82
2021/08/09 02:01:42;;;;;;;13.45;5.07;;;15.30;99.90;;;;;;5114079;28;20055;-82
2021/08/09 02:04:08;;;;;;;19.13;5.18;;;15.30;99.90;;;;;;5114370;28;20164;-82
2021/08/09 02:06:34;;;;;;;20.63;5.28;;;15.40;99.90;;;;;;5113850;28;20046;-82
2021/08/09 02:09:00;;;;;;;16.63;5.68;;;15.30;99.90;;;;;;5113454;28;20035;-83
2021/08/09 02:11:54;;;;;;;18.92;5.85;;;15.30;99.90;;;;;;5079119;28;20047;-83
2021/08/09 02:14:24;;;;;;;11.90;5.32;;;15.30;99.90;;;;;;5113584;28;20031;-82
2021/08/09 02:16:59;;;;;;;17.85;5.57;;;15.30;99.90;;;;;;5113174;28;20146;-82
2021/08/09 02:19:55;;;;;;;21.30;5.82;;;15.30;99.90;;;;;;5095486;28;20035;-83
2021/08/09 02:22:30;;;;;;;21.47;5.80;;;15.30;99.90;;;;;;5099805;28;20043;-83
2021/08/09 02:25:08;;;;;;;19.73;6.73;;;15.30;99.90;;;;;;5113345;28;20399;-83
2021/08/09 02:27:39;;;;;;;13.93;5.30;;;15.20;99.90;;;;;;5113220;28;20110;-83
2021/08/09 02:30:07;;;;;;;16.08;5.90;;;15.20;99.90;;;;;;5096003;28;20043;-83
2021/08/09 02:32:35;;;;;;;20.65;5.35;;;15.20;99.90;;;;;;5078822;28;20042;-83
2021/08/09 02:35:19;;;;;;;;;;;15.20;99.90;;;;;;5111576;27;20903;-81
2021/08/09 02:37:46;;;;;;;15.63;4.55;;;15.20;99.90;;;;;;5111872;28;20003;-81
2021/08/09 02:40:14;;;;;;;16.88;5.18;;;15.10;99.90;;;;;;5110802;28;20059;-81
2021/08/09 02:42:40;;;;;;;15.32;5.07;;;15.20;99.90;;;;;;5110915;28;20036;-81
2021/08/09 02:45:07;;;;;;;20.08;4.88;;;15.10;99.90;;;;;;5109563;28;20044;-81
2021/08/09 02:47:37;;;;;;;19.90;5.72;;;15.10;99.90;;;;;;5110502;28;20039;-81
2021/08/09 02:50:05;;;;;;;18.92;4.90;;;15.10;99.90;;;;;;5109804;28;20536;-82
2021/08/09 02:52:32;;;;;;;17.25;5.40;;;15.10;99.90;;;;;;5092762;28;20031;-82
2021/08/09 02:55:00;;;;;;;20.83;5.13;;;15.10;99.90;;;;;;5092902;28;20027;-83
2021/08/09 02:57:28;;;;;;;20.70;5.05;;;15.20;99.90;;;;;;5109580;28;20047;-83
2021/08/09 02:59:58;;;;;;;19.15;5.15;;;15.00;99.90;;;;;;5111127;28;20116;-82
2021/08/09 03:02:28;;;;;;;19.05;5.10;;;15.20;99.90;;;;;;5109651;28;20572;-82
2021/08/09 03:04:55;;;;;;;20.98;5.63;;;15.20;99.90;;;;;;5110379;28;20039;-82
2021/08/09 03:07:21;;;;;;;17.55;5.80;;;15.20;99.90;;;;;;5106994;28;20097;-82
2021/08/09 03:09:50;;;;;;;20.90;5.20;;;15.20;99.90;;;;;;5089903;28;20040;-82
2021/08/09 03:12:18;;;;;;;17.27;4.32;;;15.20;99.90;;;;;;5090575;28;20032;-82
2021/08/09 03:14:53;;;;;;;17.50;4.75;;;15.20;99.90;;;;;;5089668;28;20115;-83
2021/08/09 03:17:19;;;;;;;18.90;4.90;;;15.20;99.90;;;;;;5089510;28;20040;-83
2021/08/09 03:19:45;;;;;;;20.73;5.63;;;15.10;99.90;;;;;;5089601;28;20052;-83
2021/08/09 03:22:13;;;;;;;18.60;4.93;;;15.10;99.90;;;;;;5090470;28;20379;-83
2021/08/09 03:24:39;;;;;;;17.90;5.10;;;15.20;99.90;;;;;;5090599;28;20047;-83
2021/08/09 03:27:07;;;;;;;18.17;4.90;;;15.40;99.90;;;;;;5088894;28;20115;-83
2021/08/09 03:29:33;;;;;;;17.58;5.22;;;15.20;99.90;;;;;;5071918;28;20024;-82
2021/08/09 03:31:59;;;;;;;23.50;4.60;;;15.40;99.90;;;;;;5071788;28;20032;-83
2021/08/09 03:34:25;;;;;;;13.15;4.45;;;15.20;99.90;;;;;;5084698;28;20080;-83
2021/08/09 03:36:52;;;;;;;17.25;4.50;;;15.30;99.90;;;;;;5080259;28;20040;-83
2021/08/09 03:39:22;;;;;;;18.60;4.85;;;15.30;99.90;;;;;;5079094;28;20038;-83
2021/08/09 03:41:51;;;;;;;18.05;5.20;;;15.30;99.90;;;;;;5096831;28;20057;-83
2021/08/09 03:44:17;;;;;;;19.08;5.50;;;15.30;99.90;;;;;;5095092;28;20047;-83
2021/08/09 03:46:43;;;;;;;22.70;5.90;;;15.30;99.90;;;;;;5078616;28;20036;-83
2021/08/09 03:49:10;;;;;;;19.65;4.78;;;15.30;99.90;;;;;;5083874;28;20289;-83
2021/08/09 03:51:37;;;;;;;19.98;4.82;;;15.30;99.90;;;;;;5076985;28;20028;-80
2021/08/09 03:54:03;;;;;;;16.42;5.03;;;15.30;99.90;;;;;;5075103;28;20388;-79
2021/08/09 03:56:31;;;;;;;18.00;4.38;;;15.20;99.90;;;;;;5073764;28;20033;-80
2021/08/09 03:58:57;;;;;;;22.02;4.70;;;15.20;99.90;;;;;;5057324;28;20036;-79
2021/08/09 04:01:23;;;;;;;19.27;4.90;;;15.20;99.90;;;;;;5060628;28;20046;-83
2021/08/09 04:03:49;;;;;;;15.63;4.85;;;15.20;99.90;;;;;;5047607;28;20068;-83
2021/08/09 04:06:16;;;;;;;17.67;5.45;;;15.20;99.90;;;;;;5080227;28;20040;-83
2021/08/09 04:08:42;;;;;;;20.05;5.60;;;15.20;99.90;;;;;;5082190;28;20036;-83
2021/08/09 04:11:08;;;;;;;17.63;4.97;;;15.20;99.90;;;;;;5065388;28;20037;-83
2021/08/09 04:13:34;;;;;;;23.02;4.90;;;15.20;99.90;;;;;;5063226;28;20481;-83
2021/08/09 04:16:01;;;;;;;18.67;5.45;;;15.20;99.90;;;;;;5080212;28;20032;-83
2021/08/09 04:18:27;;;;;;;15.93;5.13;;;15.10;99.90;;;;;;5078258;28;20053;-83
2021/08/09 04:20:53;;;;;;;15.40;4.82;;;15.20;99.90;;;;;;5080520;28;20469;-83
2021/08/09 04:23:19;;;;;;;21.58;5.40;;;15.20;99.90;;;;;;5078128;28;20036;-83
2021/08/09 04:25:44;;;;;;;15.57;5.15;;;15.20;99.90;;;;;;5075985;28;20036;-83
2021/08/09 04:28:10;;;;;;;21.27;5.60;;;15.10;99.90;;;;;;5057749;28;20070;-83
2021/08/09 04:30:36;;;;;;;17.75;5.25;;;15.20;99.90;;;;;;5057994;28;20044;-83
2021/08/09 04:33:03;;;;;;;12.07;5.00;;;15.10;99.90;;;;;;5079301;28;20036;-83
2021/08/09 04:35:30;;;;;;;20.60;5.22;;;15.10;99.90;;;;;;5081537;28;20063;-84
2021/08/09 04:37:56;;;;;;;22.02;5.70;;;15.10;99.90;;;;;;5078369;28;20063;-84
2021/08/09 04:40:25;;;;;;;18.77;4.78;;;15.10;99.90;;;;;;5077270;28;20151;-84
2021/08/09 04:42:51;;;;;;;18.75;5.47;;;15.10;99.90;;;;;;5075739;28;20032;-84
2021/08/09 04:45:17;;;;;;;23.05;5.95;;;15.10;99.90;;;;;;5058172;28;20028;-84
2021/08/09 04:47:43;;;;;;;22.38;5.25;;;15.10;99.90;;;;;;5076132;28;20488;-84
2021/08/09 04:50:09;;;;;;;20.48;5.25;;;15.10;99.90;;;;;;5079006;28;20439;-84
2021/08/09 04:52:40;;;;;;;20.58;5.07;;;15.10;99.90;;;;;;5081330;28;20082;-84
2021/08/09 04:55:07;;;;;;;26.30;5.93;;;15.10;99.90;;;;;;5077590;28;20067;-85
2021/08/09 04:57:32;;;;;;;20.15;5.90;;;15.10;99.90;;;;;;5057172;28;20446;-84
2021/08/09 04:59:58;;;;;;;22.02;5.60;;;15.10;99.90;;;;;;5075366;28;20108;-84
2021/08/09 05:02:24;;;;;;;15.82;4.78;;;15.10;99.90;;;;;;5075138;28;20036;-85
2021/08/09 05:04:50;;;;;;;16.33;4.57;;;15.10;99.90;;;;;;5073532;28;20055;-85
2021/08/09 05:07:15;;;;;;;18.33;5.18;;;15.10;99.90;;;;;;5075103;28;20051;-85
2021/08/09 05:09:41;;;;;;;18.60;4.80;;;15.10;99.90;;;;;;5073788;28;20039;-85
2021/08/09 05:12:08;;;;;;;22.98;4.97;;;15.20;99.90;;;;;;5074635;28;20039;-84
2021/08/09 05:14:35;;;;;;;20.80;4.85;;;15.10;99.90;;;;;;5075496;28;20037;-84
2021/08/09 05:17:01;;;;;;;19.58;5.22;;;15.10;99.90;;;;;;5074688;28;20119;-85
2021/08/09 05:19:29;;;;;;;27.55;5.43;;;15.10;99.90;;;;;;5075523;28;20083;-85
2021/08/09 05:21:55;;;;;;;23.95;5.32;;;15.10;99.90;;;;;;5077748;28;20036;-84
2021/08/09 05:24:21;;;;;;;22.58;4.80;;;15.10;99.90;;;;;;5080306;28;20036;-84
2021/08/09 05:26:47;;;;;;;17.30;5.45;;;15.10;99.90;;;;;;5079191;28;20037;-84
2021/08/09 05:29:13;;;;;;;21.92;5.47;;;15.10;99.90;;;;;;5063777;28;20086;-84
2021/08/09 05:31:41;;;;;;;25.98;5.35;;;15.10;99.90;;;;;;5061987;28;20611;-85
2021/08/09 05:34:08;;;;;;;33.03;6.10;;;15.10;99.90;;;;;;5079051;28;20044;-84
2021/08/09 05:36:36;;;;;;;24.75;5.53;;;15.20;99.90;;;;;;5080667;28;20037;-85
2021/08/09 05:39:05;;;;;;;24.88;5.22;;;15.10;99.90;;;;;;5079083;28;20079;-84
2021/08/09 05:41:33;;;;;;;16.88;4.95;;;15.10;99.90;;;;;;5074199;28;20044;-84
2021/08/09 05:44:02;;;;;;;23.65;5.50;;;15.20;99.90;;;;;;5074722;28;20064;-85
2021/08/09 05:46:28;;;;;;;21.02;4.95;;;15.10;99.90;;;;;;5068484;28;20044;-86
2021/08/09 05:48:56;;;;;;;18.15;4.70;;;15.00;99.90;;;;;;5066120;28;20032;-86
2021/08/09 05:51:22;;;;;;;14.60;5.00;;;15.10;99.90;;;;;;5074837;28;20119;-86
2021/08/09 05:53:48;;;;;;;26.23;5.63;;;15.10;99.90;;;;;;5075042;28;20452;-85
2021/08/09 05:56:13;;;;;;;21.33;5.57;;;15.10;99.90;;;;;;5074328;28;20527;-85
2021/08/09 05:58:39;;;;;;;26.08;5.22;;;15.10;99.90;;;;;;5061779;28;20032;-85
2021/08/09 06:01:05;;;;;;;22.23;5.55;;;15.10;99.90;;;;;;5073932;28;20044;-85
2021/08/09 06:03:31;;;;;;;20.45;5.75;;;15.10;99.90;;;;;;5074684;28;20119;-86
2021/08/09 06:05:57;;;;;;;23.80;5.25;;;15.10;99.90;;;;;;5074393;28;20028;-86
2021/08/09 06:08:23;;;;;;;23.65;5.50;;;15.10;99.90;;;;;;5072317;28;20512;-85
2021/08/09 06:10:49;;;;;;;17.48;5.03;;;15.20;99.90;;;;;;5072826;28;20046;-86
2021/08/09 06:13:17;;;;;;;21.65;5.10;;;15.20;99.90;;;;;;5056815;28;20039;-86
2021/08/09 06:15:47;;;;;;;23.52;5.32;;;15.30;99.90;;;;;;5040198;28;20032;-85
2021/08/09 06:18:34;;;;;;;23.85;5.18;;;15.20;99.90;;;;;;5062357;28;20486;-79
2021/08/09 06:21:07;;;;;;;19.15;5.55;;;15.20;99.90;;;;;;5015338;28;20046;-81
2021/08/09 06:23:33;;;;;;;17.85;5.05;;;15.20;99.90;;;;;;5072239;28;20043;-80
2021/08/09 06:25:59;;;;;;;23.83;5.78;;;15.20;99.90;;;;;;5050095;28;20472;-80
2021/08/09 06:28:25;;;;;;;27.05;5.65;;;15.20;99.90;;;;;;5065671;28;20042;-80
2021/08/09 06:30:53;;;;;;;23.95;5.78;;;15.30;99.90;;;;;;5055278;28;20029;-80
2021/08/09 06:33:20;;;;;;;21.30;5.20;;;15.30;99.90;;;;;;5073199;28;20055;-85
2021/08/09 06:35:46;;;;;;;20.13;5.43;;;15.30;99.90;;;;;;5073953;28;20060;-85
2021/08/09 06:38:12;;;;;;;23.02;5.30;;;15.30;99.90;;;;;;5073562;28;20040;-85
2021/08/09 06:40:42;;;;;;;23.73;5.13;;;15.40;99.90;;;;;;5042510;28;20051;-85
2021/08/09 06:43:08;;;;;;;18.38;5.28;;;15.40;99.90;;;;;;5073445;28;20044;-80
2021/08/09 06:45:39;;;;;;;19.90;5.10;;;15.40;99.90;;;;;;5071789;28;20060;-80
2021/08/09 06:48:05;;;;;;;22.02;5.72;;;15.40;99.90;;;;;;5071570;28;20055;-80
2021/08/09 06:50:31;;;;;;;22.50;5.65;;;15.30;99.90;;;;;;5022135;28;20047;-80
2021/08/09 06:52:56;;;;;;;21.77;5.15;;;15.50;99.90;;;;;;5071482;28;20400;-80
2021/08/09 06:55:23;;;;;;;20.17;5.65;;;15.60;99.90;;;;;;5054740;28;20044;-80
2021/08/09 06:57:49;;;;;;;24.55;5.60;;;15.60;99.90;;;;;;5073063;28;20032;-80
2021/08/09 07:00:14;;;;;;;17.48;5.30;;;15.60;99.90;;;;;;5072481;28;20033;-80
2021/08/09 07:02:40;;;;;;;20.80;5.25;;;15.60;99.90;;;;;;5072601;28;20071;-80
2021/08/09 07:05:08;;;;;;;23.40;5.32;;;15.60;99.90;;;;;;5072681;28;20040;-81
2021/08/09 07:07:35;;;;;;;22.38;4.93;;;15.70;99.90;;;;;;5072550;28;20037;-80
2021/08/09 07:10:01;;;;;;;18.40;4.78;;;15.70;99.90;;;;;;5071216;28;20087;-80
2021/08/09 07:12:27;;;;;;;19.20;5.32;;;15.70;99.90;;;;;;5044632;28;20033;-80
2021/08/09 07:14:56;;;;;;;14.70;5.15;;;15.80;99.90;;;;;;5054521;28;20106;-80
2021/08/09 07:17:37;;;;;;;22.92;5.50;;;15.80;99.90;;;;;;5054727;28;20070;-80
2021/08/09 07:20:05;;;;;;;25.67;5.70;;;15.90;99.90;;;;;;5055066;28;20040;-80
2021/08/09 07:22:31;;;;;;;19.85;5.63;;;15.90;99.90;;;;;;5058023;28;20067;-81
2021/08/09 07:24:57;;;;;;;22.15;5.05;;;16.00;99.90;;;;;;5074810;28;20048;-80
2021/08/09 07:27:25;;;;;;;24.42;5.95;;;16.10;99.90;;;;;;5057861;28;20052;-80
2021/08/09 07:29:51;;;;;;;21.92;5.68;;;16.20;99.90;;;;;;5074660;28;20089;-80
2021/08/09 07:32:17;;;;;;;20.40;5.80;;;16.30;99.90;;;;;;5074515;28;20036;-79
2021/08/09 07:34:45;;;;;;;21.38;5.97;;;16.20;99.90;;;;;;5057920;28;20083;-80
2021/08/09 07:37:10;;;;;;;26.85;5.65;;;16.20;99.90;;;;;;5058859;28;20052;-85
2021/08/09 07:39:36;;;;;;;26.67;5.70;;;16.30;99.90;;;;;;5080979;28;20049;-86
2021/08/09 07:42:04;;;;;;;25.27;6.00;;;16.30;99.90;;;;;;5060457;28;20067;-85
2021/08/09 07:44:30;;;;;;;26.58;5.47;;;16.30;99.90;;;;;;5077397;28;20040;-85
2021/08/09 07:46:56;;;;;;;24.85;5.40;;;16.20;99.90;;;;;;5077840;28;20029;-80
2021/08/09 07:49:24;;;;;;;23.98;5.43;;;16.40;99.90;;;;;;5073867;28;20043;-80
2021/08/09 07:51:50;;;;;;;24.45;6.40;;;16.40;99.90;;;;;;5057350;28;20408;-80
2021/08/09 07:54:19;;;;;;;26.10;5.57;;;16.40;99.90;;;;;;5057172;28;20037;-80
2021/08/09 07:56:45;;;;;;;24.30;5.47;;;16.50;99.90;;;;;;5073839;28;20045;-80
2021/08/09 07:59:11;;;;;;;23.88;5.40;;;17.10;99.90;;;;;;5057427;28;20119;-79
2021/08/09 08:01:37;;;;;;;19.90;5.60;;;16.50;99.90;;;;;;5057455;28;20530;-85
2021/08/09 08:04:03;;;;;;;21.17;5.55;;;16.60;99.90;;;;;;5075433;28;20044;-85
2021/08/09 08:06:29;;;;;;;23.50;5.47;;;16.60;99.90;;;;;;5079571;28;20084;-87
2021/08/09 08:08:55;;;;;;;26.02;5.40;;;16.60;99.90;;;;;;5078775;28;20115;-85
2021/08/09 08:11:21;;;;;;;25.23;6.05;;;16.60;99.90;;;;;;5075749;28;20036;-86
2021/08/09 08:13:46;;;;;;;21.83;5.63;;;16.60;99.90;;;;;;5075112;28;20420;-86
2021/08/09 08:16:12;;;;;;;24.92;5.18;;;16.60;99.90;;;;;;5075381;28;20040;-85
2021/08/09 08:18:38;;;;;;;28.27;6.03;;;16.60;99.90;;;;;;5058386;28;20499;-85
2021/08/09 08:21:04;;;;;;;23.48;5.32;;;16.60;99.90;;;;;;5077002;28;20051;-79
2021/08/09 08:23:30;;;;;;;20.23;5.15;;;16.60;99.90;;;;;;5076578;28;20060;-80
2021/08/09 08:25:56;;;;;;;22.73;5.43;;;16.60;99.90;;;;;;5074099;28;20033;-80
2021/08/09 08:28:27;;;;;;;25.95;5.20;;;16.60;99.90;;;;;;5074435;28;20028;-80
2021/08/09 08:31:01;;;;;;;19.45;5.15;;;16.60;99.90;;;;;;5027467;28;20114;-80
2021/08/09 08:33:27;;;;;;;20.48;5.60;;;16.70;99.90;;;;;;5040650;28;20496;-80
2021/08/09 08:35:53;;;;;;;19.13;5.13;;;16.80;99.90;;;;;;5074882;28;20103;-80
2021/08/09 08:38:22;;;;;;;21.45;5.70;;;16.70;99.90;;;;;;5074559;28;20044;-85
2021/08/09 08:40:50;;;;;;;19.35;5.45;;;16.80;99.90;;;;;;5058296;28;20135;-80
2021/08/09 08:43:20;;;;;;;23.52;4.95;;;16.80;99.90;;;;;;5066616;28;20112;-81
2021/08/09 08:45:55;;;;;;;20.77;5.40;;;16.80;99.90;;;;;;5069584;28;20046;-86
2021/08/09 08:48:21;;;;;;;23.80;5.60;;;16.80;99.90;;;;;;5076019;28;20552;-86
2021/08/09 08:50:47;;;;;;;28.73;6.43;;;16.80;99.90;;;;;;5077492;28;20468;-85
2021/08/09 08:53:13;;;;;;;22.23;5.10;;;16.90;99.90;;;;;;5059317;28;20094;-86
2021/08/09 08:55:38;;;;;;;18.35;4.95;;;16.90;99.90;;;;;;5074687;28;20044;-86
2021/08/09 08:58:07;;;;;;;21.08;5.10;;;17.00;99.90;;;;;;5070072;28;20043;-86
2021/08/09 09:00:36;;;;;;;17.88;4.63;;;17.00;99.90;;;;;;5047378;28;20480;-86
2021/08/09 09:03:16;;;;;;;18.83;4.72;;;17.10;99.90;;;;;;5062638;28;20049;-86
2021/08/09 09:05:55;;;;;;;20.02;5.00;;;17.20;99.90;;;;;;5049110;28;20024;-85
2021/08/09 09:08:36;;;;;;;22.17;5.13;;;17.20;99.90;;;;;;5061393;28;20090;-86
2021/08/09 09:11:03;;;;;;;19.27;4.80;;;17.30;99.90;;;;;;5075187;28;20039;-86
2021/08/09 09:13:29;;;;;;;18.20;4.80;;;17.30;99.90;;;;;;5074082;28;20098;-86
2021/08/09 09:16:09;;;;;;;16.70;4.60;;;17.30;99.90;;;;;;5073841;28;20498;-86
2021/08/09 09:18:55;;;;;;;20.48;5.10;;;17.40;99.90;;;;;;5074552;28;20480;-86
2021/08/09 09:21:34;;;;;;;22.98;4.25;;;17.50;99.90;;;;;;5064375;28;20049;-85
2021/08/09 09:24:26;;;;;;;17.30;4.30;;;17.50;99.90;;;;;;5057945;28;20048;-86
2021/08/09 09:26:58;;;;;;;17.25;4.68;;;17.60;99.90;;;;;;5070458;28;20467;-86
2021/08/09 09:29:25;;;;;;;19.98;4.75;;;17.70;99.90;;;;;;5068797;28;20033;-86
2021/08/09 09:31:53;;;;;;;19.60;4.32;;;17.70;99.90;;;;;;5065672;28;20052;-85
2021/08/09 09:34:21;;;;;;;21.15;4.38;;;17.80;99.90;;;;;;5075719;28;20056;-86
2021/08/09 09:36:54;;;;;;;16.55;4.10;;;17.80;99.90;;;;;;5073625;28;20048;-80
2021/08/09 09:39:27;;;;;;;17.45;4.78;;;17.90;99.90;;;;;;5073768;28;20035;-86
2021/08/09 09:41:54;;;;;;;14.27;4.25;;;18.00;99.90;;;;;;5073671;28;20037;-86
2021/08/09 09:44:24;;;;;;;20.58;4.15;;;18.00;99.90;;;;;;5071777;28;20049;-85
2021/08/09 09:47:16;;;;;;;19.00;3.97;;;18.10;99.90;;;;;;5075270;28;20040;-87
2021/08/09 09:49:42;;;;;;;20.85;3.90;;;18.20;99.90;;;;;;5074123;28;20025;-80
2021/08/09 09:52:11;;;;;;;20.73;3.63;;;18.20;99.90;;;;;;5071760;28;20046;-80
2021/08/09 09:54:41;;;;;;;14.35;3.50;;;18.20;99.90;;;;;;5057367;28;20485;-80
2021/08/09 09:57:09;;;;;;;20.98;4.18;;;18.20;99.90;;;;;;5072857;28;20431;-81
2021/08/09 09:59:35;;;;;;;18.38;3.33;;;18.10;99.90;;;;;;5072865;28;20036;-80
2021/08/09 10:02:01;;;;;;;12.80;3.30;;;18.10;99.90;;;;;;5050845;28;20033;-80
2021/08/09 10:04:27;;;;;;;18.70;3.45;;;18.10;99.90;;;;;;5062706;28;20044;-79
2021/08/09 10:06:55;;;;;;;14.45;3.65;;;18.20;99.90;;;;;;5074581;28;20032;-86
2021/08/09 10:09:22;;;;;;;13.20;3.55;;;18.30;99.90;;;;;;5073194;28;20044;-86
2021/08/09 10:11:48;;;;;;;9.40;3.08;;;18.30;99.90;;;;;;5074139;28;20063;-86
2021/08/09 10:14:14;;;;;;;12.50;2.92;;;18.40;99.90;;;;;;5038648;28;20442;-80
2021/08/09 10:16:41;;;;;;;15.82;3.33;;;18.40;99.90;;;;;;5072622;28;20411;-79
2021/08/09 10:19:08;;;;;;;17.95;3.58;;;18.30;99.90;;;;;;5072492;28;20116;-80
2021/08/09 10:21:34;;;;;;;10.10;2.60;;;18.30;99.90;;;;;;5071468;28;20036;-81
2021/08/09 10:24:00;;;;;;;10.25;2.72;;;18.30;99.90;;;;;;5054578;28;20503;-81
2021/08/09 10:26:32;;;;;;;10.13;2.30;;;18.40;99.90;;;;;;5072842;28;20033;-80
2021/08/09 10:29:09;;;;;;;8.95;2.47;;;18.50;99.90;;;;;;5058249;28;20048;-80
2021/08/09 10:31:55;;;;;;;15.52;2.55;;;18.60;99.90;;;;;;5072639;28;20093;-81
2021/08/09 10:34:40;;;;;;;12.70;2.95;;;18.70;99.90;;;;;;5071960;28;20045;-80
2021/08/09 10:37:16;;;;;;;10.40;2.50;;;18.70;99.90;;;;;;5072474;28;20048;-80
2021/08/09 10:39:58;;;;;;;7.65;2.50;;;18.70;99.90;;;;;;5045393;28;20037;-80
2021/08/09 10:42:30;;;;;;;10.05;2.13;;;18.70;99.90;;;;;;5071253;28;20043;-80
2021/08/09 10:44:56;;;;;;;6.65;1.85;;;19.20;99.90;;;;;;5071371;28;20059;-80
2021/08/09 10:47:46;;;;;;;7.05;2.10;;;18.70;99.90;;;;;;5054623;28;20047;-80
2021/08/09 10:50:34;;;;;;;9.65;2.15;;;18.70;99.90;;;;;;5058539;28;20048;-80
2021/08/09 10:53:02;;;;;;;10.07;2.58;;;18.70;99.90;;;;;;5056469;28;20174;-80
2021/08/09 10:55:30;;;;;;;7.93;2.08;;;18.70;99.90;;;;;;5073505;28;20037;-79
2021/08/09 10:58:00;;;;;;;7.25;1.90;;;18.80;99.90;;;;;;5076108;28;20045;-80
2021/08/09 11:00:38;;;;;;;5.22;1.98;;;19.00;99.90;;;;;;5076153;28;20078;-80
2021/08/09 11:03:12;;;;;;;4.93;1.92;;;18.80;99.90;;;;;;5074946;28;20037;-80
2021/08/09 11:05:39;;;;;;;8.45;2.28;;;19.00;99.90;;;;;;5075174;28;20052;-80
2021/08/09 11:08:26;;;;;;;7.43;2.00;;;19.00;99.90;;;;;;5058190;28;20787;-80
2021/08/09 11:11:10;;;;;;;9.38;1.92;;;18.90;99.90;;;;;;5076008;28;20479;-80
2021/08/09 11:13:36;;;;;;;8.60;2.00;;;18.80;99.90;;;;;;5075791;28;20040;-80
2021/08/09 11:16:04;;;;;;;14.35;2.22;;;18.70;99.90;;;;;;5075863;28;20523;-80
2021/08/09 11:18:31;;;;;;;7.05;1.83;;;18.60;99.90;;;;;;5075923;28;20036;-81
2021/08/09 11:21:05;;;;;;;9.02;1.75;;;18.50;99.90;;;;;;5074611;28;20491;-80
2021/08/09 11:23:42;;;;;;;8.13;1.90;;;18.40;99.90;;;;;;5074765;28;20463;-80
2021/08/09 11:26:21;;;;;;;7.75;2.50;;;18.40;99.90;;;;;;5075899;28;20029;-80
2021/08/09 11:29:01;;;;;;;9.02;2.95;;;18.40;99.90;;;;;;5075750;28;20538;-80
2021/08/09 11:31:28;;;;;;;7.13;2.08;;;18.40;99.90;;;;;;5078394;28;20120;-80
2021/08/09 11:33:55;;;;;;;8.15;2.00;;;18.40;99.90;;;;;;5075676;28;20060;-80
2021/08/09 11:36:23;;;;;;;5.43;2.03;;;18.40;99.90;;;;;;5059738;28;20044;-81
2021/08/09 11:38:56;;;;;;;8.52;1.90;;;18.40;99.90;;;;;;5075714;28;20043;-80
2021/08/09 11:41:26;;;;;;;5.68;1.63;;;18.40;99.90;;;;;;5051168;28;20043;-80
2021/08/09 11:44:05;;;;;;;4.68;1.40;;;18.40;99.90;;;;;;5080005;28;20051;-80
2021/08/09 11:46:33;;;;;;;7.30;1.90;;;18.40;99.90;;;;;;5077477;28;20051;-80
2021/08/09 11:48:59;;;;;;;3.83;1.40;;;18.50;99.90;;;;;;5076491;28;20049;-80
2021/08/09 11:51:30;;;;;;;9.15;2.20;;;18.50;99.90;;;;;;5076988;28;20107;-80
2021/08/09 11:53:58;;;;;;;9.98;2.00;;;18.60;99.90;;;;;;5060626;28;20043;-80
2021/08/09 11:56:36;;;;;;;7.47;2.75;;;18.60;99.90;;;;;;5078207;28;20090;-81
2021/08/09 11:59:12;;;;;;;8.98;1.92;;;18.70;99.90;;;;;;5061464;28;20024;-80
2021/08/09 12:01:40;;;;;;;4.82;1.90;;;18.80;99.90;;;;;;5076530;28;20041;-80
2021/08/09 12:04:12;;;;;;;5.53;1.58;;;18.80;99.90;;;;;;5077165;28;20040;-80
2021/08/09 12:06:58;;;;;;;6.55;1.88;;;19.00;99.90;;;;;;5075596;28;20082;-81
2021/08/09 12:09:38;;;;;;;4.57;1.65;;;19.10;99.90;;;;;;5065325;28;20186;-80
2021/08/09 12:12:06;;;;;;;6.25;1.88;;;19.20;99.90;;;;;;5059618;28;20059;-79
2021/08/09 12:14:33;;;;;;;8.02;1.83;;;19.40;99.90;;;;;;5077214;28;20060;-80
2021/08/09 12:17:00;;;;;;;7.82;1.88;;;19.30;99.90;;;;;;5074759;28;20048;-80
2021/08/09 12:19:37;;;;;;;6.03;1.98;;;19.30;99.90;;;;;;5060632;28;20043;-78
2021/08/09 12:22:27;;;;;;;7.95;1.90;;;19.30;99.90;;;;;;5075415;28;20496;-80
2021/08/09 12:25:11;;;;;;;6.40;1.70;;;19.40;99.90;;;;;;5075561;28;20115;-79
2021/08/09 12:27:38;;;;;;;7.25;2.28;;;19.30;99.90;;;;;;5075040;28;20039;-80
2021/08/09 12:30:17;;;;;;;9.30;2.42;;;19.30;99.90;;;;;;5075879;28;20036;-80
2021/08/09 12:33:00;;;;;;;8.05;2.03;;;19.30;99.90;;;;;;5075048;28;20033;-80
2021/08/09 12:35:33;;;;;;;4.97;1.92;;;19.30;99.90;;;;;;5075379;28;20124;-80
2021/08/09 12:38:07;;;;;;;6.88;1.90;;;19.30;99.90;;;;;;5076432;28;20507;-79
2021/08/09 12:40:52;;;;;;;5.73;1.83;;;19.20;99.90;;;;;;5074960;28;20041;-80
2021/08/09 12:43:21;;;;;;;6.60;2.10;;;19.20;99.90;;;;;;5074244;28;20047;-80
2021/08/09 12:45:50;;;;;;;8.85;2.08;;;19.40;99.90;;;;;;5074239;28;20033;-80
2021/08/09 12:48:16;;;;;;;7.72;2.25;;;19.20;99.90;;;;;;5073160;28;20033;-80
2021/08/09 12:50:43;;;;;;;8.93;2.30;;;19.30;99.90;;;;;;5077224;28;20110;-86